createdAt,value
2019-03-03T00:02:15.596Z,97777.42
2019-03-03T00:04:43.238Z,97766.19
2019-03-03T00:07:10.822Z,97765.16
2019-03-03T00:09:38.489Z,97771.99
2019-03-03T00:12:07.003Z,97771.08
2019-03-03T00:14:34.604Z,97776.89
2019-03-03T00:17:02.269Z,97777.97
2019-03-03T00:19:29.872Z,97775.45
2019-03-03T00:21:57.469Z,97777.17
2019-03-03T00:24:26.877Z,97783.53
2019-03-03T00:26:54.448Z,97781.59
2019-03-03T00:29:22.040Z,97774.36
2019-03-03T00:31:49.672Z,97780.26
2019-03-03T00:34:17.244Z,97770.51
2019-03-03T00:37:13.235Z,97780.14
2019-03-03T00:40:06.169Z,97787.02
2019-03-03T00:42:53.262Z,97789.38
2019-03-03T00:45:49.376Z,97778.33
2019-03-03T00:48:42.783Z,97775.05
2019-03-03T00:51:28.489Z,97777.63
2019-03-03T00:54:05.990Z,97781.97
2019-03-03T00:56:58.725Z,97787.09
2019-03-03T00:59:46.637Z,97785.07
2019-03-03T01:02:48.866Z,97786.34
2019-03-03T01:05:24.465Z,97781.63
2019-03-03T01:08:15.160Z,97788.02
2019-03-03T01:11:08.299Z,97788.92
2019-03-03T01:14:04.406Z,97777.97
2019-03-03T01:16:48.299Z,97782.42
2019-03-03T01:19:38.027Z,97778.03
2019-03-03T01:22:27.665Z,97769.05
2019-03-03T01:24:57.816Z,97767.98
2019-03-03T01:27:26.078Z,97765.31
2019-03-03T01:29:53.918Z,97757.44
2019-03-03T01:32:21.490Z,97761.42
2019-03-03T01:34:49.138Z,97763.88
2019-03-03T01:37:16.808Z,97757.91
2019-03-03T01:39:44.479Z,97749.69
2019-03-03T01:42:12.038Z,97749.66
2019-03-03T01:44:39.652Z,97749.66
2019-03-03T01:47:07.616Z,97748.54
2019-03-03T01:49:35.242Z,97749.52
2019-03-03T01:52:03.020Z,97749.16
2019-03-03T01:54:30.641Z,97747.85
2019-03-03T01:56:58.211Z,97750.64
2019-03-03T01:59:25.906Z,97744.55
2019-03-03T02:01:55.267Z,97746.39
2019-03-03T02:04:22.822Z,97746.44
2019-03-03T02:06:50.470Z,97748.78
2019-03-03T02:09:18.304Z,97745.14
2019-03-03T02:11:45.938Z,97745.64
2019-03-03T02:14:13.528Z,97738.59
2019-03-03T02:16:41.087Z,97744.41
2019-03-03T02:19:08.721Z,97736.92
2019-03-03T02:21:36.261Z,97742.23
2019-03-03T02:24:03.979Z,97740.20
2019-03-03T02:26:31.657Z,97734.63
2019-03-03T02:28:59.331Z,97731.48
2019-03-03T02:31:26.999Z,97730.62
2019-03-03T02:33:54.644Z,97731.64
2019-03-03T02:36:22.271Z,97731.64
2019-03-03T02:38:49.832Z,97732.55
2019-03-03T02:41:18.377Z,97734.76
2019-03-03T02:43:45.950Z,97729.63
2019-03-03T02:46:13.535Z,97735.45
2019-03-03T02:48:41.099Z,97738.28
2019-03-03T02:51:08.787Z,97731.08
2019-03-03T02:53:36.458Z,97735.08
2019-03-03T02:56:04.159Z,97745.16
2019-03-03T02:58:31.972Z,97743.03
2019-03-03T03:01:34.433Z,97755.73
2019-03-03T03:04:01.997Z,97754.62
2019-03-03T03:06:47.826Z,97761.25
2019-03-03T03:09:21.033Z,97760.77
2019-03-03T03:11:58.982Z,97765.96
2019-03-03T03:14:46.137Z,97761.42
2019-03-03T03:17:36.039Z,97756.62
2019-03-03T03:20:26.045Z,97758.84
2019-03-03T03:23:15.804Z,97746.72
2019-03-03T03:26:05.549Z,97752.81
2019-03-03T03:28:55.480Z,97745.36
2019-03-03T03:31:29.203Z,97744.98
2019-03-03T03:34:03.345Z,97737.05
2019-03-03T03:36:44.200Z,97730.75
2019-03-03T03:39:23.939Z,97725.45
2019-03-03T03:42:11.415Z,97722.34
2019-03-03T03:45:07.499Z,97722.05
2019-03-03T03:47:57.249Z,97709.30
2019-03-03T03:50:43.739Z,97713.22
2019-03-03T03:53:29.731Z,97720.29
2019-03-03T03:56:19.408Z,97723.35
2019-03-03T03:59:05.242Z,97721.11
2019-03-03T04:01:52.317Z,97719.34
2019-03-03T04:04:33.206Z,97726.30
2019-03-03T04:07:23.879Z,97725.89
2019-03-03T04:10:11.011Z,97726.79
2019-03-03T04:12:54.480Z,97735.02
2019-03-03T04:15:41.624Z,97730.56
2019-03-03T04:18:22.676Z,97734.42
2019-03-03T04:21:08.562Z,97734.16
2019-03-03T04:23:58.456Z,97734.83
2019-03-03T04:26:48.346Z,97724.47
2019-03-03T04:29:44.329Z,97729.41
2019-03-03T04:32:31.459Z,97736.89
2019-03-03T04:35:24.492Z,97728.25
2019-03-03T04:38:10.463Z,97731.80
2019-03-03T04:41:01.156Z,97738.82
2019-03-03T04:43:40.574Z,97725.78
2019-03-03T04:46:30.349Z,97726.38
2019-03-03T04:49:20.437Z,97742.17
2019-03-03T04:52:16.684Z,97750.09
2019-03-03T04:55:12.509Z,97747.66
2019-03-03T04:57:47.169Z,97744.22
2019-03-03T05:00:34.390Z,97736.44
2019-03-03T05:03:20.078Z,97734.19
2019-03-03T05:06:15.956Z,97741.83
2019-03-03T05:09:12.259Z,97740.33
2019-03-03T05:12:39.783Z,97746.64
2019-03-03T05:15:33.231Z,97746.00
2019-03-03T05:18:07.427Z,97741.27
2019-03-03T05:20:46.624Z,97753.56
2019-03-03T05:23:17.048Z,97755.43
2019-03-03T05:25:44.717Z,97758.61
2019-03-03T05:28:12.239Z,97759.91
2019-03-03T05:30:39.865Z,97755.75
2019-03-03T05:33:07.408Z,97750.41
2019-03-03T05:35:35.065Z,97746.22
2019-03-03T05:38:02.582Z,97737.28
2019-03-03T05:40:30.163Z,97746.20
2019-03-03T05:42:57.747Z,97751.13
2019-03-03T05:45:25.351Z,97745.23
2019-03-03T05:47:52.898Z,97751.67
2019-03-03T05:50:20.516Z,97745.31
2019-03-03T05:52:48.066Z,97749.40
2019-03-03T05:55:15.703Z,97756.52
2019-03-03T05:57:43.279Z,97761.23
2019-03-03T06:00:12.296Z,97769.48
2019-03-03T06:02:39.864Z,97775.13
2019-03-03T06:05:07.822Z,97772.97
2019-03-03T06:07:35.334Z,97765.98
2019-03-03T06:10:03.728Z,97751.28
2019-03-03T06:12:31.297Z,97753.73
2019-03-03T06:14:58.980Z,97755.36
2019-03-03T06:17:26.518Z,97748.27
2019-03-03T06:19:54.116Z,97751.67
2019-03-03T06:22:21.741Z,97766.70
2019-03-03T06:24:49.673Z,97766.33
2019-03-03T06:27:19.063Z,97765.81
2019-03-03T06:29:46.768Z,97771.88
2019-03-03T06:32:14.382Z,97766.19
2019-03-03T06:34:42.071Z,97773.48
2019-03-03T06:37:09.780Z,97776.86
2019-03-03T06:39:37.448Z,97769.39
2019-03-03T06:42:05.087Z,97772.33
2019-03-03T06:44:32.759Z,97771.56
2019-03-03T06:47:00.470Z,97760.83
2019-03-03T06:49:28.102Z,97758.36
2019-03-03T06:51:58.764Z,97756.25
2019-03-03T06:54:26.482Z,97763.65
2019-03-03T06:56:54.112Z,97765.98
2019-03-03T06:59:23.185Z,97766.61
2019-03-03T07:01:50.722Z,97764.25
2019-03-03T07:04:18.399Z,97763.50
2019-03-03T07:06:45.928Z,97765.52
2019-03-03T07:09:13.499Z,97758.75
2019-03-03T07:11:41.031Z,97760.63
2019-03-03T07:14:08.626Z,97758.33
2019-03-03T07:16:36.178Z,97754.72
2019-03-03T07:19:03.841Z,97748.06
2019-03-03T07:21:31.414Z,97754.86
2019-03-03T07:23:59.095Z,97756.49
2019-03-03T07:26:26.795Z,97749.76
2019-03-03T07:28:54.472Z,97736.99
2019-03-03T07:31:22.207Z,97744.36
2019-03-03T07:33:53.447Z,97739.72
2019-03-03T07:36:22.884Z,97742.00
2019-03-03T07:38:50.606Z,97737.71
2019-03-03T07:41:18.422Z,97737.53
2019-03-03T07:43:46.148Z,97738.08
2019-03-03T07:46:13.818Z,97735.87
2019-03-03T07:48:41.383Z,97739.11
2019-03-03T07:51:09.224Z,97746.47
2019-03-03T07:53:36.878Z,97738.01
2019-03-03T07:56:04.556Z,97740.33
2019-03-03T07:58:32.142Z,97737.70
2019-03-03T08:00:59.825Z,97727.07
2019-03-03T08:03:27.408Z,97734.28
2019-03-03T08:05:55.128Z,97725.00
2019-03-03T08:08:22.682Z,97725.61
2019-03-03T08:10:50.408Z,97728.58
2019-03-03T08:13:18.994Z,97726.41
2019-03-03T08:15:46.743Z,97727.91
2019-03-03T08:18:15.281Z,97729.44
2019-03-03T08:20:42.971Z,97727.72
2019-03-03T08:23:10.549Z,97725.78
2019-03-03T08:25:39.202Z,97723.16
2019-03-03T08:28:06.766Z,97726.48
2019-03-03T08:30:34.493Z,97718.33
2019-03-03T08:33:02.102Z,97721.37
2019-03-03T08:35:29.755Z,97719.38
2019-03-03T08:37:57.589Z,97721.13
2019-03-03T08:40:25.271Z,97713.11
2019-03-03T08:43:04.246Z,97716.19
2019-03-03T08:45:49.990Z,97719.97
2019-03-03T08:48:35.755Z,97721.49
2019-03-03T08:51:15.245Z,97722.66
2019-03-03T08:54:05.434Z,97716.55
2019-03-03T08:56:45.435Z,97714.68
2019-03-03T08:59:38.365Z,97721.19
2019-03-03T09:02:23.810Z,97720.31
2019-03-03T09:05:14.659Z,97720.80
2019-03-03T09:08:20.133Z,97715.69
2019-03-03T09:10:57.568Z,97719.37
2019-03-03T09:13:37.435Z,97712.34
2019-03-03T09:16:27.905Z,97714.73
2019-03-03T09:19:24.136Z,97717.31
2019-03-03T09:22:13.946Z,97719.98
2019-03-03T09:24:57.290Z,97717.43
2019-03-03T09:27:47.597Z,97710.84
2019-03-03T09:30:33.479Z,97719.98
2019-03-03T09:33:20.755Z,97718.12
2019-03-03T09:36:08.213Z,97716.98
2019-03-03T09:38:54.256Z,97712.86
2019-03-03T09:41:50.677Z,97716.52
2019-03-03T09:44:37.892Z,97714.69
2019-03-03T09:47:19.836Z,97704.28
2019-03-03T09:50:05.592Z,97700.23
2019-03-03T09:52:40.466Z,97702.05
2019-03-03T09:55:26.254Z,97695.87
2019-03-03T09:58:07.255Z,97690.86
2019-03-03T10:00:57.264Z,97683.26
2019-03-03T10:03:32.063Z,97681.47
2019-03-03T10:06:34.614Z,97676.96
2019-03-03T10:09:40.037Z,97669.20
2019-03-03T10:12:30.181Z,97667.31
2019-03-03T10:15:12.755Z,97666.82
2019-03-03T10:17:55.129Z,97667.14
2019-03-03T10:20:48.230Z,97668.42
2019-03-03T10:23:34.372Z,97666.39
2019-03-03T10:26:24.987Z,97659.97
2019-03-03T10:29:12.174Z,97662.67
2019-03-03T10:31:57.760Z,97658.80
2019-03-03T10:34:44.945Z,97654.63
2019-03-03T10:37:35.079Z,97657.06
2019-03-03T10:40:20.823Z,97655.08
2019-03-03T10:42:59.973Z,97654.37
2019-03-03T10:45:47.094Z,97657.91
2019-03-03T10:48:43.343Z,97648.08
2019-03-03T10:51:22.046Z,97642.43
2019-03-03T10:54:07.602Z,97634.52
2019-03-03T10:56:56.415Z,97634.61
2019-03-03T10:59:43.610Z,97626.64
2019-03-03T11:02:39.406Z,97620.09
2019-03-03T11:05:23.978Z,97612.22
2019-03-03T11:08:20.156Z,97609.62
2019-03-03T11:11:25.445Z,97599.37
2019-03-03T11:14:22.421Z,97587.27
2019-03-03T11:17:08.010Z,97576.11
2019-03-03T11:19:50.866Z,97580.91
2019-03-03T11:22:40.764Z,97579.70
2019-03-03T11:25:28.031Z,97574.86
2019-03-03T11:28:12.039Z,97571.81
2019-03-03T11:30:45.763Z,97566.00
2019-03-03T11:33:33.241Z,97558.91
2019-03-03T11:36:18.661Z,97572.14
2019-03-03T11:38:54.864Z,97557.73
2019-03-03T11:41:29.900Z,97551.74
2019-03-03T11:44:15.934Z,97548.53
2019-03-03T11:47:01.694Z,97546.41
2019-03-03T11:49:47.745Z,97538.68
2019-03-03T11:52:36.292Z,97522.13
2019-03-03T11:55:29.890Z,97516.23
2019-03-03T11:58:22.917Z,97500.74
2019-03-03T12:01:13.088Z,97494.33
2019-03-03T12:04:12.220Z,97491.52
2019-03-03T12:07:08.818Z,97491.09
2019-03-03T12:09:52.332Z,97489.28
2019-03-03T12:12:42.362Z,97484.56
2019-03-03T12:15:15.944Z,97477.97
2019-03-03T12:18:03.193Z,97480.23
2019-03-03T12:20:50.393Z,97473.72
2019-03-03T12:23:36.219Z,97476.15
2019-03-03T12:26:23.431Z,97477.14
2019-03-03T12:29:19.255Z,97465.84
2019-03-03T12:31:57.592Z,97464.77
2019-03-03T12:34:40.967Z,97454.91
2019-03-03T12:37:31.166Z,97446.20
2019-03-03T12:40:16.792Z,97437.05
2019-03-03T12:43:02.610Z,97432.49
2019-03-03T12:45:48.273Z,97427.27
2019-03-03T12:48:35.600Z,97428.62
2019-03-03T12:51:23.021Z,97417.51
2019-03-03T12:54:21.987Z,97413.80
2019-03-03T12:57:01.353Z,97400.98
2019-03-03T12:59:46.674Z,97406.05
2019-03-03T13:02:25.452Z,97407.03
2019-03-03T13:05:18.440Z,97401.53
2019-03-03T13:07:52.329Z,97401.84
2019-03-03T13:10:44.216Z,97403.64
2019-03-03T13:13:19.240Z,97395.59
2019-03-03T13:16:02.576Z,97392.08
2019-03-03T13:19:02.055Z,97396.35
2019-03-03T13:21:57.070Z,97393.44
2019-03-03T13:24:50.566Z,97390.98
2019-03-03T13:27:37.832Z,97378.51
2019-03-03T13:30:31.275Z,97376.08
2019-03-03T13:33:18.660Z,97376.08
2019-03-03T13:36:06.290Z,97378.06
2019-03-03T13:39:03.077Z,97368.63
2019-03-03T13:41:57.981Z,97363.11
2019-03-03T13:44:25.925Z,97365.13
2019-03-03T13:46:54.505Z,97356.05
2019-03-03T13:49:42.546Z,97347.31
2019-03-03T13:52:38.940Z,97353.22
2019-03-03T13:55:09.601Z,97340.80
2019-03-03T13:57:37.350Z,97340.80
2019-03-03T14:00:07.469Z,97341.47
2019-03-03T14:02:35.123Z,97348.74
2019-03-03T14:05:03.023Z,97341.76
2019-03-03T14:07:32.118Z,97335.67
2019-03-03T14:09:59.858Z,97335.67
2019-03-03T14:12:27.634Z,97336.56
2019-03-03T14:14:55.323Z,97336.56
2019-03-03T14:17:23.080Z,97329.14
2019-03-03T14:19:50.864Z,97328.81
2019-03-03T14:22:18.581Z,97324.09
2019-03-03T14:24:46.291Z,97326.58
2019-03-03T14:27:17.820Z,97323.81
2019-03-03T14:29:45.693Z,97329.32
2019-03-03T14:32:13.501Z,97321.02
2019-03-03T14:34:41.309Z,97318.72
2019-03-03T14:37:09.555Z,97323.23
2019-03-03T14:39:39.387Z,97320.45
2019-03-03T14:42:06.995Z,97305.69
2019-03-03T14:44:34.876Z,97314.97
2019-03-03T14:47:02.648Z,97298.13
2019-03-03T14:49:30.485Z,97304.72
2019-03-03T14:51:58.208Z,97312.70
2019-03-03T14:54:25.912Z,97313.09
2019-03-03T14:56:56.075Z,97306.89
2019-03-03T14:59:23.844Z,97314.34
2019-03-03T15:01:51.529Z,97308.83
2019-03-03T15:04:19.290Z,97309.95
2019-03-03T15:06:46.983Z,97304.70
2019-03-03T15:09:20.317Z,97299.20
2019-03-03T15:11:48.057Z,97304.45
2019-03-03T15:14:15.821Z,97296.91
2019-03-03T15:16:43.374Z,97294.36
2019-03-03T15:19:12.190Z,97284.92
2019-03-03T15:21:42.694Z,97283.95
2019-03-03T15:24:11.512Z,97283.95
2019-03-03T15:26:39.216Z,97284.35
2019-03-03T15:29:06.970Z,97275.80
2019-03-03T15:31:37.643Z,97269.68
2019-03-03T15:34:04.338Z,97270.49
2019-03-03T15:36:32.108Z,97267.06
2019-03-03T15:38:59.813Z,97264.86
2019-03-03T15:41:27.539Z,97263.45
2019-03-03T15:43:55.097Z,97257.06
2019-03-03T15:46:22.778Z,97267.36
2019-03-03T15:48:53.310Z,97265.81
2019-03-03T15:51:21.065Z,97269.16
2019-03-03T15:53:48.721Z,97269.08
2019-03-03T15:56:16.419Z,97264.40
2019-03-03T15:58:44.210Z,97266.88
2019-03-03T16:01:14.462Z,97264.95
2019-03-03T16:03:42.169Z,97263.49
2019-03-03T16:06:09.836Z,97260.75
2019-03-03T16:08:37.554Z,97264.92
2019-03-03T16:11:05.121Z,97261.69
2019-03-03T16:13:32.785Z,97251.39
2019-03-03T16:16:00.348Z,97258.60
2019-03-03T16:18:28.069Z,97261.65
2019-03-03T16:20:55.611Z,97255.44
2019-03-03T16:23:23.234Z,97253.61
2019-03-03T16:25:50.824Z,97250.67
2019-03-03T16:28:18.758Z,97249.27
2019-03-03T16:30:46.331Z,97251.66
2019-03-03T16:33:20.413Z,97249.25
2019-03-03T16:35:46.555Z,97251.63
2019-03-03T16:38:14.225Z,97245.31
2019-03-03T16:40:41.768Z,97237.24
2019-03-03T16:43:09.423Z,97234.13
2019-03-03T16:45:36.995Z,97230.55
2019-03-03T16:48:04.648Z,97232.77
2019-03-03T16:50:34.502Z,97234.32
2019-03-03T16:53:02.195Z,97235.78
2019-03-03T16:55:29.802Z,97235.20
2019-03-03T16:57:57.420Z,97234.50
2019-03-03T17:00:25.140Z,97238.05
2019-03-03T17:02:52.796Z,97240.62
2019-03-03T17:05:20.675Z,97243.06
2019-03-03T17:07:48.309Z,97243.61
2019-03-03T17:10:15.857Z,97236.76
2019-03-03T17:12:43.658Z,97247.01
2019-03-03T17:15:13.888Z,97249.81
2019-03-03T17:17:41.641Z,97243.61
2019-03-03T17:20:09.500Z,97240.86
2019-03-03T17:22:37.235Z,97231.75
2019-03-03T17:25:08.095Z,97243.83
2019-03-03T17:27:35.903Z,97242.41
2019-03-03T17:30:04.779Z,97246.44
2019-03-03T17:32:32.537Z,97244.11
2019-03-03T17:35:00.313Z,97240.36
2019-03-03T17:37:28.227Z,97247.63
2019-03-03T17:39:56.012Z,97241.36
2019-03-03T17:42:24.144Z,97237.33
2019-03-03T17:44:51.935Z,97238.66
2019-03-03T17:47:19.721Z,97245.56
2019-03-03T17:49:47.457Z,97248.05
2019-03-03T17:52:15.204Z,97242.59
2019-03-03T17:54:42.861Z,97244.73
2019-03-03T17:57:10.483Z,97243.35
2019-03-03T17:59:38.190Z,97240.30
2019-03-03T18:02:05.962Z,97233.61
2019-03-03T18:04:35.431Z,97233.39
2019-03-03T18:07:03.092Z,97236.81
2019-03-03T18:09:30.788Z,97234.52
2019-03-03T18:11:59.719Z,97234.74
2019-03-03T18:14:27.446Z,97235.94
2019-03-03T18:16:55.079Z,97238.25
2019-03-03T18:19:22.827Z,97237.91
2019-03-03T18:21:50.510Z,97240.34
2019-03-03T18:24:18.161Z,97242.63
2019-03-03T18:26:45.796Z,97237.62
2019-03-03T18:29:13.520Z,97239.61
2019-03-03T18:31:41.231Z,97233.97
2019-03-03T18:34:08.986Z,97229.27
2019-03-03T18:36:36.683Z,97230.69
2019-03-03T18:39:06.727Z,97222.95
2019-03-03T18:41:36.266Z,97222.23
2019-03-03T18:44:04.014Z,97218.41
2019-03-03T18:46:31.745Z,97220.34
2019-03-03T18:48:59.443Z,97226.06
2019-03-03T18:51:27.064Z,97219.09
2019-03-03T18:53:54.739Z,97222.34
2019-03-03T18:56:22.775Z,97220.45
2019-03-03T18:58:50.501Z,97219.35
2019-03-03T19:01:18.237Z,97225.05
2019-03-03T19:03:46.027Z,97217.52
2019-03-03T19:06:13.722Z,97226.45
2019-03-03T19:08:41.414Z,97226.44
2019-03-03T19:11:09.081Z,97221.38
2019-03-03T19:13:36.645Z,97225.84
2019-03-03T19:16:04.406Z,97230.06
2019-03-03T19:18:31.977Z,97227.03
2019-03-03T19:20:59.634Z,97224.31
2019-03-03T19:23:27.161Z,97222.37
2019-03-03T19:25:54.781Z,97225.19
2019-03-03T19:28:22.360Z,97221.31
2019-03-03T19:30:49.983Z,97222.73
2019-03-03T19:33:21.513Z,97212.94
2019-03-03T19:35:49.188Z,97220.22
2019-03-03T19:38:17.953Z,97218.87
2019-03-03T19:40:45.570Z,97214.64
2019-03-03T19:43:13.281Z,97218.22
2019-03-03T19:45:40.847Z,97215.36
2019-03-03T19:48:08.906Z,97211.61
2019-03-03T19:50:36.487Z,97215.36
2019-03-03T19:53:06.122Z,97214.04
2019-03-03T19:55:33.747Z,97217.27
2019-03-03T19:58:01.491Z,97209.52
2019-03-03T20:00:35.418Z,97199.88
2019-03-03T20:03:02.164Z,97210.44
2019-03-03T20:05:29.896Z,97208.73
2019-03-03T20:07:57.654Z,97216.48
2019-03-03T20:10:25.435Z,97215.23
2019-03-03T20:12:56.082Z,97221.36
2019-03-03T20:15:23.842Z,97211.73
2019-03-03T20:17:51.556Z,97217.95
2019-03-03T20:20:19.375Z,97213.54
2019-03-03T20:22:46.972Z,97211.45
2019-03-03T20:25:14.741Z,97201.86
2019-03-03T20:27:42.569Z,97211.83
2019-03-03T20:30:12.819Z,97205.90
2019-03-03T20:32:40.465Z,97205.77
2019-03-03T20:35:08.795Z,97195.33
2019-03-03T20:37:36.577Z,97194.61
2019-03-03T20:40:05.700Z,97194.45
2019-03-03T20:42:33.418Z,97194.15
2019-03-03T20:45:01.058Z,97192.17
2019-03-03T20:47:28.772Z,97186.27
2019-03-03T20:49:56.446Z,97179.66
2019-03-03T20:52:24.153Z,97184.53
2019-03-03T20:54:51.773Z,97186.16
2019-03-03T20:57:19.546Z,97188.13
2019-03-03T20:59:47.097Z,97185.81
2019-03-03T21:02:14.832Z,97184.50
2019-03-03T21:04:42.603Z,97184.89
2019-03-03T21:07:10.307Z,97186.02
2019-03-03T21:09:37.942Z,97175.43
2019-03-03T21:12:05.583Z,97178.81
2019-03-03T21:14:33.241Z,97175.20
2019-03-03T21:17:00.942Z,97172.84
2019-03-03T21:19:28.676Z,97173.47
2019-03-03T21:21:56.450Z,97177.69
2019-03-03T21:24:24.325Z,97175.48
2019-03-03T21:26:51.945Z,97167.88
2019-03-03T21:29:20.001Z,97164.67
2019-03-03T21:31:50.145Z,97165.71
2019-03-03T21:34:17.802Z,97157.61
2019-03-03T21:36:45.583Z,97144.16
2019-03-03T21:39:13.478Z,97148.00
2019-03-03T21:41:41.394Z,97150.09
2019-03-03T21:44:09.095Z,97145.40
2019-03-03T21:46:36.600Z,97143.89
2019-03-03T21:49:04.174Z,97136.88
2019-03-03T21:51:31.843Z,97141.98
2019-03-03T21:53:59.504Z,97135.02
2019-03-03T21:56:28.599Z,97129.36
2019-03-03T21:58:56.278Z,97115.91
2019-03-03T22:01:23.980Z,97115.77
2019-03-03T22:03:51.576Z,97115.17
2019-03-03T22:06:19.262Z,97111.53
2019-03-03T22:08:46.910Z,97116.17
2019-03-03T22:11:14.546Z,97114.59
2019-03-03T22:13:42.226Z,97104.16
2019-03-03T22:16:09.889Z,97099.05
2019-03-03T22:18:37.555Z,97093.36
2019-03-03T22:21:06.148Z,97085.28
2019-03-03T22:23:33.828Z,97092.45
2019-03-03T22:26:01.398Z,97084.94
2019-03-03T22:28:29.029Z,97080.59
2019-03-03T22:30:56.581Z,97071.06
2019-03-03T22:33:24.186Z,97073.63
2019-03-03T22:35:51.785Z,97085.95
2019-03-03T22:38:21.205Z,97076.53
2019-03-03T22:40:48.883Z,97067.44
2019-03-03T22:43:16.461Z,97079.68
2019-03-03T22:45:44.038Z,97079.41
2019-03-03T22:48:11.662Z,97074.14
2019-03-03T22:50:39.199Z,97072.09
2019-03-03T22:53:06.811Z,97076.19
2019-03-03T22:55:35.819Z,97071.03
2019-03-03T22:58:03.385Z,97072.27
2019-03-03T23:01:00.596Z,97067.80
2019-03-03T23:03:35.121Z,97069.12
2019-03-03T23:06:10.666Z,97076.45
2019-03-03T23:08:49.576Z,97078.31
2019-03-03T23:12:04.989Z,97078.13
2019-03-03T23:14:58.644Z,97073.37
2019-03-03T23:17:58.909Z,97069.69
2019-03-03T23:21:01.861Z,97065.52
2019-03-03T23:24:23.318Z,97070.89
2019-03-03T23:26:50.877Z,97075.61
2019-03-03T23:29:18.441Z,97072.23
2019-03-03T23:31:46.067Z,97075.82
2019-03-03T23:34:13.758Z,97071.40
2019-03-03T23:36:41.314Z,97072.02
2019-03-03T23:39:09.182Z,97068.08
2019-03-03T23:41:36.735Z,97069.78
2019-03-03T23:44:04.348Z,97069.38
2019-03-03T23:46:31.946Z,97060.48
2019-03-03T23:48:59.632Z,97067.51
2019-03-03T23:51:27.171Z,97060.73
2019-03-03T23:53:54.785Z,97068.21
2019-03-03T23:56:22.370Z,97069.45
2019-03-03T23:58:50.011Z,97064.20
